Time;durP1;ratioP1;P1;durP2;ratioP2;P2;SDS_P1;SDS_P2;PMS_P1;PMS_P2;Temp;Humidity;BMP_temperature;BMP_pressure;BME280_temperature;BME280_humidity;BME280_pressure;Samples;Min_cycle;Max_cycle;Signal;HPM_P1;HPM_P2
2022/12/05 00:02:11;;;;;;;16.40;8.87;;;;;;;;;;4891765;29;20670;-87
2022/12/05 00:04:37;;;;;;;17.67;9.23;;;;;;;;;;4877740;29;20260;-84
2022/12/05 00:07:03;;;;;;;17.67;8.97;;;;;;;;;;4873415;29;20270;-85
2022/12/05 00:09:29;;;;;;;14.90;8.77;;;;;;;;;;4869946;29;20186;-85
2022/12/05 00:11:55;;;;;;;13.93;8.50;;;;;;;;;;4868769;29;20269;-84
2022/12/05 00:14:21;;;;;;;11.97;7.97;;;;;;;;;;4884093;29;20635;-84
2022/12/05 00:16:47;;;;;;;13.47;8.47;;;;;;;;;;4870991;29;20685;-83
2022/12/05 00:19:14;;;;;;;14.50;9.37;;;;;;;;;;4882695;29;20722;-84
2022/12/05 00:21:41;;;;;;;15.33;9.53;;;;;;;;;;4871598;29;20278;-84
2022/12/05 00:24:08;;;;;;;14.97;8.27;;;;;;;;;;4879447;29;20206;-84
2022/12/05 00:26:35;;;;;;;13.30;8.57;;;;;;;;;;4883745;29;20182;-87
2022/12/05 00:29:01;;;;;;;11.73;8.50;;;;;;;;;;4874549;29;20189;-84
2022/12/05 00:31:27;;;;;;;13.87;8.77;;;;;;;;;;4877568;29;20206;-87
2022/12/05 00:33:53;;;;;;;13.73;10.23;;;;;;;;;;4876898;29;20599;-85
2022/12/05 00:36:24;;;;;;;13.53;8.87;;;;;;;;;;4893524;29;20190;-86
2022/12/05 00:38:50;;;;;;;11.17;7.73;;;;;;;;;;4865109;29;20254;-85
2022/12/05 00:41:26;;;;;;;13.33;8.57;;;;;;;;;;4875862;29;20678;-87
2022/12/05 00:43:53;;;;;;;14.87;9.33;;;;;;;;;;4892346;29;20218;-84
2022/12/05 00:46:20;;;;;;;15.03;8.57;;;;;;;;;;4875755;29;20273;-84
2022/12/05 00:48:46;;;;;;;13.20;8.30;;;;;;;;;;4877343;29;20202;-86
2022/12/05 00:51:15;;;;;;;13.70;8.37;;;;;;;;;;4893069;29;20187;-86
2022/12/05 00:53:41;;;;;;;13.57;8.17;;;;;;;;;;4875235;29;20217;-84
2022/12/05 00:56:08;;;;;;;14.77;10.20;;;;;;;;;;4877005;29;20190;-84
2022/12/05 00:58:35;;;;;;;14.07;7.83;;;;;;;;;;4875948;29;20202;-87
2022/12/05 01:01:12;;;;;;;15.10;8.73;;;;;;;;;;4872022;29;20190;-84
2022/12/05 01:03:38;;;;;;;12.27;9.50;;;;;;;;;;4878683;29;20182;-82
2022/12/05 01:06:05;;;;;;;17.23;9.23;;;;;;;;;;4875548;29;20440;-84
2022/12/05 01:08:32;;;;;;;12.17;8.97;;;;;;;;;;4874045;29;20183;-85
2022/12/05 01:10:58;;;;;;;15.10;8.87;;;;;;;;;;4882456;29;20626;-85
2022/12/05 01:13:25;;;;;;;10.13;7.83;;;;;;;;;;4875987;29;20179;-84
2022/12/05 01:15:51;;;;;;;13.77;9.63;;;;;;;;;;4874725;29;20404;-84
2022/12/05 01:18:17;;;;;;;14.10;8.03;;;;;;;;;;4875077;29;20280;-84
2022/12/05 01:20:44;;;;;;;11.37;8.13;;;;;;;;;;4874530;29;20934;-85
2022/12/05 01:23:10;;;;;;;15.20;8.10;;;;;;;;;;4875372;29;20183;-85
2022/12/05 01:25:39;;;;;;;13.40;8.90;;;;;;;;;;4875278;29;20218;-84
2022/12/05 01:28:05;;;;;;;10.93;8.57;;;;;;;;;;4876676;29;20266;-85
2022/12/05 01:30:32;;;;;;;16.80;9.13;;;;;;;;;;4875848;29;20801;-85
2022/12/05 01:32:58;;;;;;;15.50;8.23;;;;;;;;;;4874048;29;20254;-84
2022/12/05 01:35:24;;;;;;;15.17;8.13;;;;;;;;;;4876266;29;20195;-85
2022/12/05 01:37:51;;;;;;;14.47;9.40;;;;;;;;;;4870641;29;20191;-85
2022/12/05 01:40:17;;;;;;;13.93;8.50;;;;;;;;;;4865547;29;20683;-85
2022/12/05 01:42:43;;;;;;;12.70;8.03;;;;;;;;;;4874153;29;20252;-83
2022/12/05 01:45:14;;;;;;;12.93;7.90;;;;;;;;;;4874268;29;20213;-84
2022/12/05 01:47:41;;;;;;;11.83;8.27;;;;;;;;;;4878152;29;20649;-84
2022/12/05 01:50:07;;;;;;;12.93;7.57;;;;;;;;;;4889239;29;20689;-85
2022/12/05 01:52:34;;;;;;;13.40;7.70;;;;;;;;;;4895291;29;20565;-84
2022/12/05 01:55:03;;;;;;;16.33;7.80;;;;;;;;;;4896771;29;20490;-85
2022/12/05 01:57:30;;;;;;;15.90;8.40;;;;;;;;;;4877475;29;20239;-86
2022/12/05 01:59:59;;;;;;;11.97;8.20;;;;;;;;;;4873840;29;20187;-84
2022/12/05 02:02:26;;;;;;;10.87;7.10;;;;;;;;;;4895315;29;20194;-85
2022/12/05 02:04:58;;;;;;;13.00;9.07;;;;;;;;;;4893427;29;20223;-84
2022/12/05 02:07:24;;;;;;;14.03;8.90;;;;;;;;;;4878597;29;20689;-86
2022/12/05 02:09:50;;;;;;;13.30;7.67;;;;;;;;;;4871489;29;20182;-84
2022/12/05 02:12:18;;;;;;;13.50;8.07;;;;;;;;;;4893752;29;20579;-84
2022/12/05 02:15:03;;;;;;;13.03;8.87;;;;;;;;;;4878899;29;20183;-84
2022/12/05 02:17:35;;;;;;;12.07;7.97;;;;;;;;;;4891167;29;20198;-88
2022/12/05 02:20:17;;;;;;;9.83;6.40;;;;;;;;;;4876404;29;20198;-85
2022/12/05 02:22:43;;;;;;;14.03;8.93;;;;;;;;;;4876452;29;20371;-84
2022/12/05 02:25:09;;;;;;;11.17;8.23;;;;;;;;;;4892935;29;20199;-87
2022/12/05 02:27:38;;;;;;;10.40;7.50;;;;;;;;;;4876930;29;20190;-87
2022/12/05 02:30:06;;;;;;;10.67;7.70;;;;;;;;;;4881979;29;20183;-87
2022/12/05 02:32:32;;;;;;;10.10;7.73;;;;;;;;;;4876757;29;20741;-88
2022/12/05 02:35:02;;;;;;;13.17;9.57;;;;;;;;;;4878923;29;20681;-84
2022/12/05 02:37:32;;;;;;;14.57;8.70;;;;;;;;;;4894729;29;20574;-86
2022/12/05 02:39:58;;;;;;;11.17;8.07;;;;;;;;;;4895687;29;20272;-85
2022/12/05 02:42:29;;;;;;;11.33;8.10;;;;;;;;;;4878041;29;20258;-85
2022/12/05 02:45:05;;;;;;;13.00;9.13;;;;;;;;;;4893152;29;20247;-85
2022/12/05 02:47:33;;;;;;;13.47;8.40;;;;;;;;;;4876353;29;20281;-84
2022/12/05 02:49:59;;;;;;;12.63;8.23;;;;;;;;;;4878791;29;20871;-84
2022/12/05 02:52:26;;;;;;;12.47;8.27;;;;;;;;;;4886011;29;20213;-84
2022/12/05 02:54:54;;;;;;;10.17;7.73;;;;;;;;;;4878734;29;20643;-87
2022/12/05 02:57:21;;;;;;;15.17;7.77;;;;;;;;;;4875339;29;20445;-85
2022/12/05 02:59:47;;;;;;;13.80;8.37;;;;;;;;;;4892586;29;20191;-84
2022/12/05 03:02:34;;;;;;;15.13;8.67;;;;;;;;;;4878548;29;20529;-86
2022/12/05 03:05:18;;;;;;;12.43;8.67;;;;;;;;;;4877465;29;20217;-83
2022/12/05 03:07:46;;;;;;;12.77;8.20;;;;;;;;;;4875974;29;20179;-83
2022/12/05 03:10:13;;;;;;;14.10;8.27;;;;;;;;;;4876786;29;20197;-84
2022/12/05 03:12:44;;;;;;;14.60;8.33;;;;;;;;;;4878084;29;20513;-86
2022/12/05 03:15:30;;;;;;;13.53;8.13;;;;;;;;;;4878670;29;20271;-85
2022/12/05 03:18:10;;;;;;;12.23;7.97;;;;;;;;;;4888532;29;20198;-85
2022/12/05 03:20:40;;;;;;;10.27;8.27;;;;;;;;;;4876773;29;20190;-84
2022/12/05 03:23:16;;;;;;;13.07;8.87;;;;;;;;;;4883661;29;20604;-86
2022/12/05 03:25:48;;;;;;;13.17;8.77;;;;;;;;;;4878621;29;20449;-84
2022/12/05 03:28:30;;;;;;;13.43;9.00;;;;;;;;;;4891095;29;20194;-84
2022/12/05 03:30:58;;;;;;;14.70;8.57;;;;;;;;;;4895033;29;20194;-84
2022/12/05 03:33:27;;;;;;;13.13;8.30;;;;;;;;;;4876973;29;20186;-85
2022/12/05 03:36:02;;;;;;;16.13;8.97;;;;;;;;;;4877805;29;20912;-84
2022/12/05 03:38:31;;;;;;;12.37;8.80;;;;;;;;;;4877964;29;20584;-83
2022/12/05 03:41:06;;;;;;;11.80;8.90;;;;;;;;;;4879458;29;20262;-85
2022/12/05 03:43:43;;;;;;;14.93;9.17;;;;;;;;;;4891134;29;20234;-84
2022/12/05 03:46:11;;;;;;;17.47;9.23;;;;;;;;;;4875037;29;20657;-84
2022/12/05 03:48:59;;;;;;;13.43;9.10;;;;;;;;;;4872102;29;20654;-84
2022/12/05 03:51:32;;;;;;;11.43;7.97;;;;;;;;;;4878718;29;20198;-84
2022/12/05 03:54:01;;;;;;;18.13;9.83;;;;;;;;;;4893674;29;20190;-85
2022/12/05 03:56:31;;;;;;;10.40;8.57;;;;;;;;;;4876970;29;20247;-84
2022/12/05 03:59:17;;;;;;;12.57;8.87;;;;;;;;;;4908609;29;20210;-87
2022/12/05 04:01:45;;;;;;;11.47;8.23;;;;;;;;;;4901119;29;20934;-83
2022/12/05 04:04:15;;;;;;;14.70;9.77;;;;;;;;;;4882299;29;20305;-85
2022/12/05 04:06:43;;;;;;;18.47;8.50;;;;;;;;;;4893590;29;20190;-84
2022/12/05 04:09:11;;;;;;;13.03;8.63;;;;;;;;;;4895456;29;20634;-84
2022/12/05 04:11:39;;;;;;;13.07;9.33;;;;;;;;;;4889920;29;20187;-85
2022/12/05 04:14:14;;;;;;;14.50;8.50;;;;;;;;;;4877551;29;20190;-84
2022/12/05 04:17:03;;;;;;;12.23;10.03;;;;;;;;;;4876263;29;20612;-84
2022/12/05 04:22:23;;;;;;;12.77;8.37;;;;;;;;;;4893364;29;20285;-85
2022/12/05 04:27:42;;;;;;;14.87;9.63;;;;;;;;;;4889502;29;20342;-84
2022/12/05 04:30:14;;;;;;;13.53;9.40;;;;;;;;;;4888947;29;20277;-84
2022/12/05 04:32:44;;;;;;;16.77;9.47;;;;;;;;;;4891550;29;20237;-85
2022/12/05 04:35:17;;;;;;;15.13;9.43;;;;;;;;;;4877814;29;20194;-84
2022/12/05 04:37:45;;;;;;;15.93;9.93;;;;;;;;;;4875153;29;20202;-85
2022/12/05 04:40:22;;;;;;;17.20;8.70;;;;;;;;;;4869357;29;20195;-84
2022/12/05 04:42:51;;;;;;;13.33;8.87;;;;;;;;;;4883372;29;20764;-85
2022/12/05 04:45:18;;;;;;;15.57;9.97;;;;;;;;;;4893930;29;20203;-85
2022/12/05 04:47:47;;;;;;;13.00;8.10;;;;;;;;;;4889542;29;20278;-84
2022/12/05 04:50:13;;;;;;;16.60;9.20;;;;;;;;;;4878071;29;20189;-84
2022/12/05 04:52:40;;;;;;;14.90;8.73;;;;;;;;;;4875432;29;20630;-85
2022/12/05 04:55:13;;;;;;;12.80;8.80;;;;;;;;;;4877395;29;20531;-84
2022/12/05 04:57:55;;;;;;;13.80;8.57;;;;;;;;;;4875875;29;20372;-85
2022/12/05 05:00:21;;;;;;;15.67;9.90;;;;;;;;;;4872172;29;20733;-84
2022/12/05 05:02:53;;;;;;;12.13;8.67;;;;;;;;;;4876555;29;20199;-85
2022/12/05 05:05:20;;;;;;;13.43;10.23;;;;;;;;;;4892985;29;20600;-83
2022/12/05 05:07:47;;;;;;;16.17;10.17;;;;;;;;;;4873724;29;20190;-84
2022/12/05 05:10:15;;;;;;;11.13;8.17;;;;;;;;;;4876409;29;20286;-85
2022/12/05 05:12:41;;;;;;;11.40;8.93;;;;;;;;;;4876692;29;20179;-85
2022/12/05 05:15:07;;;;;;;11.17;8.47;;;;;;;;;;4893462;29;20190;-85
2022/12/05 05:17:33;;;;;;;14.33;8.80;;;;;;;;;;4876870;29;20197;-84
2022/12/05 05:22:47;;;;;;;11.63;8.43;;;;;;;;;;4900638;29;20208;-87
2022/12/05 05:25:13;;;;;;;14.40;9.57;;;;;;;;;;4881243;29;20202;-87
2022/12/05 05:27:39;;;;;;;12.60;8.97;;;;;;;;;;4879932;29;20516;-85
2022/12/05 05:30:05;;;;;;;15.47;9.40;;;;;;;;;;4880289;29;20198;-83
2022/12/05 05:32:34;;;;;;;14.40;8.77;;;;;;;;;;4896285;29;20832;-84
2022/12/05 05:35:00;;;;;;;15.30;8.73;;;;;;;;;;4880916;29;20190;-84
2022/12/05 05:37:26;;;;;;;14.50;9.37;;;;;;;;;;4895814;29;20174;-86
2022/12/05 05:39:52;;;;;;;16.70;9.07;;;;;;;;;;4876297;29;20438;-85
2022/12/05 05:42:18;;;;;;;14.23;8.57;;;;;;;;;;4895706;29;20277;-88
2022/12/05 05:44:44;;;;;;;12.33;9.20;;;;;;;;;;4896525;29;20228;-85
2022/12/05 05:47:10;;;;;;;16.27;9.77;;;;;;;;;;4881357;29;20630;-85
2022/12/05 05:49:37;;;;;;;11.67;8.83;;;;;;;;;;4876486;29;20694;-83
2022/12/05 05:52:03;;;;;;;16.17;8.77;;;;;;;;;;4880156;29;21983;-84
2022/12/05 05:54:29;;;;;;;13.60;9.27;;;;;;;;;;4897793;29;20202;-85
2022/12/05 05:56:55;;;;;;;11.23;8.23;;;;;;;;;;4880877;29;20186;-85
2022/12/05 05:59:21;;;;;;;15.03;8.70;;;;;;;;;;4880408;29;20179;-84
2022/12/05 06:01:47;;;;;;;12.50;8.43;;;;;;;;;;4883760;29;20198;-84
2022/12/05 06:04:13;;;;;;;14.37;8.83;;;;;;;;;;4881993;29;20207;-85
2022/12/05 06:06:40;;;;;;;10.90;8.60;;;;;;;;;;4879355;29;20526;-86
2022/12/05 06:09:07;;;;;;;15.90;9.27;;;;;;;;;;4884505;29;20578;-85
2022/12/05 06:11:33;;;;;;;13.97;7.90;;;;;;;;;;4880379;29;20182;-86
2022/12/05 06:14:00;;;;;;;12.03;7.73;;;;;;;;;;4877519;29;20187;-86
2022/12/05 06:16:27;;;;;;;12.73;8.47;;;;;;;;;;4876277;29;20293;-87
2022/12/05 06:18:53;;;;;;;13.27;8.23;;;;;;;;;;4876988;29;20327;-84
2022/12/05 06:21:19;;;;;;;11.73;7.67;;;;;;;;;;4891666;29;20194;-87
2022/12/05 06:23:45;;;;;;;15.67;9.93;;;;;;;;;;4879081;29;20182;-86
2022/12/05 06:26:13;;;;;;;13.13;8.83;;;;;;;;;;4879891;29;20186;-86
2022/12/05 06:28:39;;;;;;;13.60;8.63;;;;;;;;;;4894733;29;20343;-87
2022/12/05 06:31:10;;;;;;;16.80;9.13;;;;;;;;;;4888413;29;20170;-86
2022/12/05 06:33:36;;;;;;;12.20;8.97;;;;;;;;;;4897722;29;20182;-87
2022/12/05 06:36:06;;;;;;;16.30;9.87;;;;;;;;;;4880941;29;20190;-86
2022/12/05 06:38:33;;;;;;;13.30;7.93;;;;;;;;;;4890100;29;20230;-87
2022/12/05 06:40:59;;;;;;;15.37;8.43;;;;;;;;;;4875962;29;20197;-87
2022/12/05 06:43:25;;;;;;;12.07;8.40;;;;;;;;;;4878019;29;20233;-86
2022/12/05 06:45:51;;;;;;;14.17;8.43;;;;;;;;;;4862588;29;20322;-86
2022/12/05 06:48:17;;;;;;;13.30;8.23;;;;;;;;;;4877297;29;20183;-86
2022/12/05 06:50:50;;;;;;;12.87;8.07;;;;;;;;;;4876907;29;20242;-87
2022/12/05 06:53:17;;;;;;;11.20;8.23;;;;;;;;;;4875376;29;20187;-86
2022/12/05 06:55:43;;;;;;;13.07;8.97;;;;;;;;;;4880411;29;20303;-86
2022/12/05 06:58:09;;;;;;;11.70;8.17;;;;;;;;;;4876958;29;20287;-86
2022/12/05 07:03:19;;;;;;;15.67;9.67;;;;;;;;;;4888920;29;20250;-86
2022/12/05 07:05:45;;;;;;;13.90;8.60;;;;;;;;;;4880041;29;20206;-86
2022/12/05 07:08:11;;;;;;;13.93;9.10;;;;;;;;;;4879468;29;20202;-89
2022/12/05 07:10:37;;;;;;;12.30;7.83;;;;;;;;;;4878066;29;20222;-85
2022/12/05 07:13:04;;;;;;;13.40;8.27;;;;;;;;;;4891484;29;20217;-84
2022/12/05 07:15:30;;;;;;;15.70;8.43;;;;;;;;;;4878282;29;20675;-84
2022/12/05 07:17:56;;;;;;;14.57;9.10;;;;;;;;;;4877463;29;20604;-84
2022/12/05 07:20:22;;;;;;;12.17;8.23;;;;;;;;;;4874691;29;20646;-84
2022/12/05 07:22:48;;;;;;;10.53;8.00;;;;;;;;;;4874225;29;20218;-84
2022/12/05 07:25:14;;;;;;;11.07;8.17;;;;;;;;;;4874988;29;20206;-85
2022/12/05 07:27:40;;;;;;;11.80;7.43;;;;;;;;;;4872659;29;20206;-85
2022/12/05 07:30:06;;;;;;;11.50;7.87;;;;;;;;;;4876403;29;20163;-86
2022/12/05 07:32:33;;;;;;;12.93;7.93;;;;;;;;;;4879239;29;20541;-84
2022/12/05 07:34:59;;;;;;;9.03;6.73;;;;;;;;;;4890403;29;20197;-86
2022/12/05 07:37:25;;;;;;;9.70;7.27;;;;;;;;;;4904280;29;20190;-84
2022/12/05 07:39:54;;;;;;;10.87;7.33;;;;;;;;;;4900107;29;20190;-87
2022/12/05 07:42:20;;;;;;;11.43;7.87;;;;;;;;;;4885474;29;20297;-86
2022/12/05 07:44:46;;;;;;;11.40;7.37;;;;;;;;;;4899038;29;20221;-86
2022/12/05 07:47:12;;;;;;;15.67;8.53;;;;;;;;;;4893864;29;20278;-86
2022/12/05 07:49:38;;;;;;;9.77;6.70;;;;;;;;;;4897122;29;20197;-86
2022/12/05 07:52:04;;;;;;;12.53;7.13;;;;;;;;;;4881674;29;20266;-85
2022/12/05 07:54:30;;;;;;;10.23;6.73;;;;;;;;;;4881047;29;20681;-85
2022/12/05 07:56:56;;;;;;;13.23;6.70;;;;;;;;;;4878295;29;20587;-86
2022/12/05 07:59:22;;;;;;;10.37;7.40;;;;;;;;;;4882657;29;20205;-86
2022/12/05 08:01:49;;;;;;;11.47;7.27;;;;;;;;;;4886109;29;20206;-87
2022/12/05 08:04:15;;;;;;;8.70;6.83;;;;;;;;;;4889023;29;20241;-87
2022/12/05 08:06:41;;;;;;;12.47;6.87;;;;;;;;;;4902059;29;20533;-86
2022/12/05 08:09:07;;;;;;;10.03;7.03;;;;;;;;;;4886761;29;20174;-85
2022/12/05 08:11:36;;;;;;;11.97;7.90;;;;;;;;;;4886399;29;20215;-84
2022/12/05 08:14:03;;;;;;;9.17;6.67;;;;;;;;;;4898799;29;20480;-85
2022/12/05 08:16:30;;;;;;;13.63;8.50;;;;;;;;;;4880493;29;20481;-87
2022/12/05 08:19:00;;;;;;;10.83;7.17;;;;;;;;;;4883841;29;20190;-86
2022/12/05 08:21:27;;;;;;;9.93;6.63;;;;;;;;;;4895939;29;20547;-87
2022/12/05 08:23:53;;;;;;;10.73;6.87;;;;;;;;;;4906811;29;20173;-85
2022/12/05 08:26:23;;;;;;;10.03;6.83;;;;;;;;;;4902249;29;20462;-85
2022/12/05 08:28:57;;;;;;;11.10;7.20;;;;;;;;;;4883414;29;20522;-86
2022/12/05 08:31:23;;;;;;;10.70;6.77;;;;;;;;;;4884262;29;20221;-86
2022/12/05 08:33:50;;;;;;;8.37;5.27;;;;;;;;;;4881347;29;20178;-87
2022/12/05 08:36:17;;;;;;;9.17;6.73;;;;;;;;;;4878003;29;20297;-86
2022/12/05 08:38:43;;;;;;;9.70;7.53;;;;;;;;;;4884670;29;20691;-86
2022/12/05 08:41:11;;;;;;;8.63;6.33;;;;;;;;;;4900370;29;20171;-86
2022/12/05 08:43:37;;;;;;;9.50;6.90;;;;;;;;;;4882860;29;20234;-87
2022/12/05 08:46:03;;;;;;;10.20;7.13;;;;;;;;;;4879173;29;20242;-86
2022/12/05 08:48:30;;;;;;;9.53;6.67;;;;;;;;;;4896394;29;20415;-87
2022/12/05 08:51:07;;;;;;;7.67;5.73;;;;;;;;;;4879087;29;21048;-87
2022/12/05 08:53:39;;;;;;;11.07;7.17;;;;;;;;;;4889042;29;20462;-86
2022/12/05 08:56:06;;;;;;;9.53;6.97;;;;;;;;;;4895680;29;20190;-86
2022/12/05 08:58:32;;;;;;;8.97;7.17;;;;;;;;;;4887755;29;20194;-84
2022/12/05 09:01:05;;;;;;;8.93;5.87;;;;;;;;;;4880129;29;20559;-85
2022/12/05 09:03:31;;;;;;;6.53;5.07;;;;;;;;;;4892874;29;20198;-86
2022/12/05 09:06:11;;;;;;;8.87;6.30;;;;;;;;;;4878755;29;20633;-89
2022/12/05 09:08:38;;;;;;;7.13;5.33;;;;;;;;;;4879364;29;21060;-85
2022/12/05 09:11:05;;;;;;;7.40;5.90;;;;;;;;;;4879899;29;20190;-84
2022/12/05 09:13:31;;;;;;;9.53;6.50;;;;;;;;;;4881675;29;20182;-86
2022/12/05 09:15:57;;;;;;;9.40;5.87;;;;;;;;;;4880808;29;20187;-86
2022/12/05 09:18:23;;;;;;;7.63;5.90;;;;;;;;;;4896842;29;20209;-85
2022/12/05 09:20:49;;;;;;;8.40;6.03;;;;;;;;;;4896879;29;20186;-86
2022/12/05 09:23:15;;;;;;;6.60;5.00;;;;;;;;;;4896800;29;20245;-84
2022/12/05 09:25:41;;;;;;;8.10;6.17;;;;;;;;;;4879165;29;20218;-87
2022/12/05 09:28:07;;;;;;;8.50;5.97;;;;;;;;;;4876171;29;20187;-85
2022/12/05 09:30:33;;;;;;;7.13;5.10;;;;;;;;;;4883619;29;20221;-84
2022/12/05 09:32:59;;;;;;;8.47;5.83;;;;;;;;;;4901015;29;20254;-85
2022/12/05 09:35:25;;;;;;;6.83;5.17;;;;;;;;;;4877597;29;20225;-84
2022/12/05 09:37:54;;;;;;;7.47;5.10;;;;;;;;;;4878206;29;20258;-84
2022/12/05 09:40:20;;;;;;;6.13;4.57;;;;;;;;;;4881036;29;20539;-85
2022/12/05 09:42:56;;;;;;;7.67;5.50;;;;;;;;;;4879654;29;20210;-85
2022/12/05 09:45:22;;;;;;;5.83;4.27;;;;;;;;;;4884234;29;20417;-84
2022/12/05 09:47:57;;;;;;;7.70;5.03;;;;;;;;;;4881027;29;20289;-85
2022/12/05 09:50:49;;;;;;;9.07;5.70;;;;;;;;;;4880331;29;20175;-86
2022/12/05 09:53:26;;;;;;;5.77;4.53;;;;;;;;;;4889974;29;20919;-85
2022/12/05 09:55:54;;;;;;;9.03;5.37;;;;;;;;;;4886587;29;20959;-84
2022/12/05 09:58:24;;;;;;;7.07;5.27;;;;;;;;;;4878714;29;20186;-86
2022/12/05 10:00:54;;;;;;;5.90;4.30;;;;;;;;;;4879239;29;20178;-83
2022/12/05 10:03:40;;;;;;;6.67;5.57;;;;;;;;;;4879345;29;20194;-84
2022/12/05 10:06:13;;;;;;;7.70;5.00;;;;;;;;;;4878296;29;20262;-84
2022/12/05 10:08:51;;;;;;;6.77;5.17;;;;;;;;;;4897557;29;20199;-87
2022/12/05 10:11:29;;;;;;;8.17;5.47;;;;;;;;;;4882508;29;20213;-84
2022/12/05 10:14:01;;;;;;;7.13;4.43;;;;;;;;;;4873908;29;20434;-85
2022/12/05 10:16:32;;;;;;;5.57;4.77;;;;;;;;;;4889759;29;20189;-84
2022/12/05 10:19:00;;;;;;;6.67;4.57;;;;;;;;;;4900536;29;20466;-85
2022/12/05 10:21:46;;;;;;;6.67;4.90;;;;;;;;;;4895058;29;20430;-84
2022/12/05 10:24:15;;;;;;;6.47;5.03;;;;;;;;;;4879969;29;20553;-84
2022/12/05 10:26:45;;;;;;;5.47;4.57;;;;;;;;;;4882216;29;21264;-85
2022/12/05 10:29:11;;;;;;;5.00;4.10;;;;;;;;;;4881854;29;20792;-85
2022/12/05 10:31:38;;;;;;;6.10;4.20;;;;;;;;;;4882510;29;20238;-86
2022/12/05 10:34:14;;;;;;;6.13;4.33;;;;;;;;;;4898122;29;20175;-85
2022/12/05 10:36:43;;;;;;;6.30;4.73;;;;;;;;;;4880778;29;20934;-84
2022/12/05 10:39:09;;;;;;;4.57;3.70;;;;;;;;;;4880425;29;20900;-86
2022/12/05 10:41:35;;;;;;;5.83;5.10;;;;;;;;;;4884876;28;20218;-86
2022/12/05 10:44:01;;;;;;;4.70;4.10;;;;;;;;;;4879442;29;20275;-86
2022/12/05 10:46:28;;;;;;;6.13;4.87;;;;;;;;;;4904822;29;20186;-85
2022/12/05 10:48:54;;;;;;;5.67;4.43;;;;;;;;;;4885349;29;20250;-84
2022/12/05 10:51:26;;;;;;;5.87;4.60;;;;;;;;;;4916882;29;20646;-84
2022/12/05 10:53:53;;;;;;;4.27;3.87;;;;;;;;;;4882566;29;20205;-84
2022/12/05 10:56:38;;;;;;;6.90;4.63;;;;;;;;;;4897083;29;20494;-84
2022/12/05 10:59:04;;;;;;;5.40;4.73;;;;;;;;;;4876769;29;20653;-84
2022/12/05 11:01:30;;;;;;;4.37;3.90;;;;;;;;;;4875000;29;20681;-84
2022/12/05 11:03:58;;;;;;;5.00;4.30;;;;;;;;;;4888286;29;20775;-84
2022/12/05 11:06:25;;;;;;;7.93;4.90;;;;;;;;;;4889386;29;20174;-82
2022/12/05 11:08:53;;;;;;;5.20;4.47;;;;;;;;;;4874506;29;20178;-82
2022/12/05 11:11:19;;;;;;;5.97;4.53;;;;;;;;;;4867999;29;20250;-86
2022/12/05 11:13:59;;;;;;;4.20;3.80;;;;;;;;;;4902728;29;20229;-84
2022/12/05 11:16:28;;;;;;;6.00;4.47;;;;;;;;;;4885197;29;20305;-84
2022/12/05 11:18:54;;;;;;;5.57;4.00;;;;;;;;;;4880666;29;20343;-84
2022/12/05 11:21:20;;;;;;;6.20;4.27;;;;;;;;;;4881534;29;20205;-83
2022/12/05 11:23:47;;;;;;;5.90;4.40;;;;;;;;;;4879866;29;20195;-85
2022/12/05 11:26:18;;;;;;;5.73;4.00;;;;;;;;;;4881173;29;20194;-84
2022/12/05 11:28:44;;;;;;;7.43;4.90;;;;;;;;;;4894372;29;20197;-83
2022/12/05 11:31:16;;;;;;;6.27;4.33;;;;;;;;;;4878336;29;20241;-84
2022/12/05 11:33:42;;;;;;;6.13;4.43;;;;;;;;;;4894757;29;20186;-83
2022/12/05 11:36:20;;;;;;;6.70;5.00;;;;;;;;;;4880805;29;20716;-83
2022/12/05 11:38:46;;;;;;;6.20;4.67;;;;;;;;;;4880229;29;20185;-83
2022/12/05 11:41:15;;;;;;;7.87;4.63;;;;;;;;;;4881019;29;20182;-83
2022/12/05 11:43:59;;;;;;;5.47;4.83;;;;;;;;;;4881331;29;20682;-84
2022/12/05 11:46:32;;;;;;;5.00;4.43;;;;;;;;;;4898241;29;20197;-85
2022/12/05 11:48:58;;;;;;;6.47;5.27;;;;;;;;;;4875074;29;20191;-86
2022/12/05 11:51:39;;;;;;;6.23;5.43;;;;;;;;;;4861741;29;20959;-85
2022/12/05 11:54:23;;;;;;;5.43;4.93;;;;;;;;;;4878010;29;20437;-82
2022/12/05 11:57:12;;;;;;;4.87;4.47;;;;;;;;;;4877391;29;20202;-85
2022/12/05 11:59:47;;;;;;;6.27;4.77;;;;;;;;;;4873366;29;20302;-83
2022/12/05 12:02:26;;;;;;;6.30;4.87;;;;;;;;;;4893320;29;20928;-83
2022/12/05 12:05:02;;;;;;;6.37;5.00;;;;;;;;;;4897551;29;20506;-83
2022/12/05 12:07:46;;;;;;;6.53;4.87;;;;;;;;;;4879907;29;20229;-84
2022/12/05 12:10:31;;;;;;;6.60;4.63;;;;;;;;;;4879683;29;20206;-83
2022/12/05 12:13:07;;;;;;;4.97;4.47;;;;;;;;;;4879557;29;20191;-85
2022/12/05 12:15:48;;;;;;;7.23;4.70;;;;;;;;;;4880142;29;20659;-84
2022/12/05 12:18:37;;;;;;;6.00;5.03;;;;;;;;;;4877330;29;20198;-82
2022/12/05 12:21:10;;;;;;;5.70;5.10;;;;;;;;;;4878620;29;21170;-85
2022/12/05 12:23:39;;;;;;;6.20;5.17;;;;;;;;;;4884077;29;20191;-84
2022/12/05 12:26:14;;;;;;;6.70;5.07;;;;;;;;;;4879066;29;20218;-84
2022/12/05 12:28:58;;;;;;;4.90;4.40;;;;;;;;;;4896232;29;20272;-83
2022/12/05 12:31:44;;;;;;;5.97;5.37;;;;;;;;;;4876385;29;20507;-85
2022/12/05 12:34:16;;;;;;;7.30;5.07;;;;;;;;;;4865202;29;20198;-83
2022/12/05 12:36:50;;;;;;;5.77;5.20;;;;;;;;;;4879890;29;20186;-84
2022/12/05 12:39:28;;;;;;;5.53;4.60;;;;;;;;;;4893061;29;20277;-83
2022/12/05 12:42:00;;;;;;;5.17;4.57;;;;;;;;;;4889243;28;20444;-83
2022/12/05 12:44:42;;;;;;;5.73;4.63;;;;;;;;;;4871676;29;20215;-83
2022/12/05 12:47:11;;;;;;;6.93;5.73;;;;;;;;;;4891152;29;20690;-83
2022/12/05 12:49:56;;;;;;;6.67;5.93;;;;;;;;;;4878053;29;20419;-84
2022/12/05 12:52:23;;;;;;;5.70;5.10;;;;;;;;;;4877746;29;20439;-83
2022/12/05 12:54:55;;;;;;;7.50;5.40;;;;;;;;;;4878460;29;20682;-84
2022/12/05 12:57:31;;;;;;;5.83;5.13;;;;;;;;;;4877532;29;20466;-84
2022/12/05 13:00:04;;;;;;;6.13;4.60;;;;;;;;;;4878321;29;20898;-84
2022/12/05 13:02:30;;;;;;;8.00;5.50;;;;;;;;;;4884971;29;20431;-83
2022/12/05 13:05:01;;;;;;;8.17;6.33;;;;;;;;;;4894208;29;20217;-85
2022/12/05 13:07:32;;;;;;;5.70;5.10;;;;;;;;;;4876590;29;20253;-83
2022/12/05 13:10:02;;;;;;;6.00;5.40;;;;;;;;;;4888470;29;21013;-83
2022/12/05 13:12:30;;;;;;;6.50;5.53;;;;;;;;;;4875149;29;20191;-85
2022/12/05 13:14:59;;;;;;;8.10;5.30;;;;;;;;;;4876154;29;20194;-84
2022/12/05 13:17:26;;;;;;;7.87;5.80;;;;;;;;;;4878969;29;20197;-86
2022/12/05 13:19:53;;;;;;;6.93;6.20;;;;;;;;;;4893182;29;20427;-83
2022/12/05 13:22:22;;;;;;;7.57;6.07;;;;;;;;;;4878248;29;20553;-84
2022/12/05 13:24:50;;;;;;;6.30;5.70;;;;;;;;;;4894736;29;20623;-83
2022/12/05 13:27:17;;;;;;;6.57;5.37;;;;;;;;;;4890250;29;20182;-83
2022/12/05 13:29:49;;;;;;;7.73;5.77;;;;;;;;;;4877199;29;20182;-83
2022/12/05 13:32:35;;;;;;;8.20;6.20;;;;;;;;;;4878465;29;20281;-84
2022/12/05 13:35:09;;;;;;;7.17;5.60;;;;;;;;;;4877719;29;20363;-83
2022/12/05 13:43:17;;;;;;;5.70;4.67;;;;;;;;;;4899839;29;20326;-84
2022/12/05 13:45:54;;;;;;;7.10;5.97;;;;;;;;;;4881991;29;20206;-83
2022/12/05 13:48:22;;;;;;;8.57;6.00;;;;;;;;;;4882981;29;20437;-84
2022/12/05 13:50:48;;;;;;;8.07;6.20;;;;;;;;;;4880105;29;20529;-83
2022/12/05 13:53:23;;;;;;;6.87;5.63;;;;;;;;;;4882647;29;20190;-84
2022/12/05 13:55:57;;;;;;;8.87;6.60;;;;;;;;;;4881876;29;20696;-83
2022/12/05 13:58:23;;;;;;;6.60;5.90;;;;;;;;;;4894101;29;20217;-83
2022/12/05 14:00:50;;;;;;;7.03;5.80;;;;;;;;;;4881235;29;20990;-82
2022/12/05 14:03:36;;;;;;;6.33;5.67;;;;;;;;;;4899003;29;20258;-84
2022/12/05 14:06:02;;;;;;;8.40;6.50;;;;;;;;;;4880549;29;20728;-83
2022/12/05 14:08:34;;;;;;;8.63;6.53;;;;;;;;;;4881488;29;20191;-83
2022/12/05 14:11:01;;;;;;;10.73;6.73;;;;;;;;;;4891887;29;20170;-83
2022/12/05 14:13:27;;;;;;;8.40;6.17;;;;;;;;;;4877400;29;20225;-83
2022/12/05 14:15:54;;;;;;;7.67;6.10;;;;;;;;;;4882136;29;20191;-82
2022/12/05 14:18:23;;;;;;;5.80;5.20;;;;;;;;;;4881408;29;20202;-84
2022/12/05 14:21:03;;;;;;;9.33;6.07;;;;;;;;;;4881556;29;20190;-84
2022/12/05 14:23:43;;;;;;;7.67;6.57;;;;;;;;;;4878176;29;20338;-86
2022/12/05 14:26:18;;;;;;;9.57;6.67;;;;;;;;;;4890129;29;20871;-85
2022/12/05 14:28:53;;;;;;;5.90;4.97;;;;;;;;;;4879828;29;20182;-85
2022/12/05 14:31:29;;;;;;;8.30;6.03;;;;;;;;;;4876920;29;20493;-84
2022/12/05 14:34:17;;;;;;;7.30;5.90;;;;;;;;;;4892048;29;20277;-86
2022/12/05 14:37:00;;;;;;;9.63;5.37;;;;;;;;;;4872920;29;20183;-86
2022/12/05 14:39:50;;;;;;;7.70;6.00;;;;;;;;;;4889299;29;20194;-85
2022/12/05 14:42:19;;;;;;;6.13;5.37;;;;;;;;;;4869655;28;20221;-85
2022/12/05 14:44:46;;;;;;;7.70;6.03;;;;;;;;;;4892508;29;20490;-86
2022/12/05 14:47:17;;;;;;;8.73;6.73;;;;;;;;;;4875547;29;20442;-89
2022/12/05 14:49:57;;;;;;;6.60;5.87;;;;;;;;;;4874440;29;20461;-83
2022/12/05 14:52:32;;;;;;;6.27;5.37;;;;;;;;;;4896016;29;20250;-86
2022/12/05 14:55:04;;;;;;;7.70;5.83;;;;;;;;;;4886689;29;20533;-85
2022/12/05 14:57:31;;;;;;;7.63;5.77;;;;;;;;;;4896005;29;20422;-84
2022/12/05 15:00:06;;;;;;;5.73;5.00;;;;;;;;;;4885758;29;20442;-82
2022/12/05 15:02:35;;;;;;;5.90;5.10;;;;;;;;;;4879364;29;20182;-82
2022/12/05 15:05:19;;;;;;;6.63;5.50;;;;;;;;;;4894475;29;20530;-84
2022/12/05 15:07:46;;;;;;;7.37;5.40;;;;;;;;;;4868419;29;20433;-83
2022/12/05 15:10:15;;;;;;;5.30;4.70;;;;;;;;;;4877849;29;20431;-82